Time;durP1;ratioP1;P1;durP2;ratioP2;P2;SDS_P1;SDS_P2;PMS_P1;PMS_P2;Temp;Humidity;BMP_temperature;BMP_pressure;BME280_temperature;BME280_humidity;BME280_pressure;Samples;Min_cycle;Max_cycle;Signal;HPM_P1;HPM_P2
2023/06/04 00:00:43;;;;;;;2.40;0.95;;;15.90;48.50;;;;;;5093632;28;20032;-66
2023/06/04 00:03:09;;;;;;;2.15;1.27;;;15.90;48.60;;;;;;5091346;28;20415;-66
2023/06/04 00:05:35;;;;;;;2.60;0.98;;;15.90;48.80;;;;;;5074708;28;20059;-66
2023/06/04 00:08:00;;;;;;;2.17;0.70;;;15.80;48.80;;;;;;5074620;28;20036;-66
2023/06/04 00:10:26;;;;;;;2.08;0.90;;;15.80;48.90;;;;;;5091514;28;20444;-66
2023/06/04 00:12:52;;;;;;;3.72;1.50;;;15.80;49.00;;;;;;5090443;28;20035;-66
2023/06/04 00:15:18;;;;;;;3.63;1.20;;;15.70;49.10;;;;;;5074795;28;20089;-66
2023/06/04 00:17:43;;;;;;;2.35;1.25;;;15.70;49.40;;;;;;5116412;27;20047;-65
2023/06/04 00:20:10;;;;;;;3.13;1.23;;;15.70;49.50;;;;;;5113681;27;20032;-66
2023/06/04 00:22:36;;;;;;;2.58;1.20;;;15.60;49.60;;;;;;5074467;28;20541;-66
2023/06/04 00:25:02;;;;;;;2.80;1.13;;;15.60;49.70;;;;;;5074377;28;20047;-66
2023/06/04 00:27:28;;;;;;;2.70;1.13;;;15.60;49.90;;;;;;5118961;27;20576;-66
2023/06/04 00:29:54;;;;;;;2.75;1.50;;;15.50;49.80;;;;;;5057509;28;20191;-66
2023/06/04 00:32:20;;;;;;;4.85;1.40;;;15.50;49.90;;;;;;5117004;27;20526;-66
2023/06/04 00:34:57;;;;;;;2.17;1.02;;;15.50;50.00;;;;;;5121359;27;20040;-66
2023/06/04 00:37:24;;;;;;;2.83;1.35;;;15.40;50.20;;;;;;5116980;27;20383;-66
2023/06/04 00:39:50;;;;;;;2.78;1.38;;;15.40;50.30;;;;;;5116774;27;20039;-66
2023/06/04 00:42:16;;;;;;;3.08;1.20;;;15.40;50.40;;;;;;5091316;28;20104;-65
2023/06/04 00:44:44;;;;;;;4.85;1.45;;;15.30;50.50;;;;;;5073994;28;20502;-65
2023/06/04 00:47:18;;;;;;;4.18;1.42;;;15.30;50.50;;;;;;5119727;27;20125;-66
2023/06/04 00:49:44;;;;;;;4.00;1.55;;;15.30;50.80;;;;;;5090712;28;20054;-66
2023/06/04 00:52:15;;;;;;;3.05;1.35;;;15.20;50.80;;;;;;5091670;28;20040;-66
2023/06/04 00:54:41;;;;;;;2.40;1.10;;;15.20;51.00;;;;;;5090475;28;20079;-66
2023/06/04 00:57:08;;;;;;;2.33;1.23;;;15.20;51.10;;;;;;5091019;28;20056;-66
2023/06/04 00:59:37;;;;;;;2.22;1.10;;;15.20;51.10;;;;;;5117327;27;20127;-65
2023/06/04 01:02:12;;;;;;;2.92;1.58;;;15.10;51.20;;;;;;5116282;27;20043;-66
2023/06/04 01:04:47;;;;;;;2.10;1.30;;;15.10;51.30;;;;;;5113551;27;20551;-65
2023/06/04 01:07:15;;;;;;;2.00;1.08;;;15.10;51.50;;;;;;5107619;27;20032;-66
2023/06/04 01:09:45;;;;;;;2.42;1.00;;;15.00;51.50;;;;;;5088830;28;20555;-66
2023/06/04 01:12:11;;;;;;;3.05;1.20;;;15.10;51.60;;;;;;5091125;28;20031;-66
2023/06/04 01:14:37;;;;;;;2.85;1.75;;;15.00;51.60;;;;;;5074060;28;20094;-65
2023/06/04 01:17:28;;;;;;;2.92;1.58;;;15.00;51.70;;;;;;5123046;27;20044;-66
2023/06/04 01:20:20;;;;;;;2.38;1.30;;;14.90;51.80;;;;;;5110182;27;20048;-66
2023/06/04 01:22:49;;;;;;;2.83;1.50;;;14.90;51.90;;;;;;5090677;28;20042;-66
2023/06/04 01:25:23;;;;;;;3.67;1.42;;;14.90;52.00;;;;;;5111662;27;20050;-66
2023/06/04 01:27:56;;;;;;;3.00;1.33;;;14.90;52.10;;;;;;5090789;28;20047;-65
2023/06/04 01:30:31;;;;;;;3.13;1.70;;;14.80;52.10;;;;;;5090527;28;20036;-66
2023/06/04 01:32:58;;;;;;;5.00;1.50;;;14.80;52.30;;;;;;5124080;27;20166;-65
2023/06/04 01:35:25;;;;;;;3.97;1.58;;;14.80;52.40;;;;;;5088756;28;20036;-65
2023/06/04 01:37:51;;;;;;;3.75;1.52;;;14.70;52.40;;;;;;5090508;28;20040;-66
2023/06/04 01:40:17;;;;;;;3.28;1.55;;;14.70;52.60;;;;;;5114349;28;20040;-65
2023/06/04 01:42:43;;;;;;;4.32;1.63;;;14.70;52.60;;;;;;5090704;28;20058;-65
2023/06/04 01:45:09;;;;;;;3.65;1.42;;;14.70;52.80;;;;;;5090611;28;20431;-66
2023/06/04 01:47:35;;;;;;;4.72;1.85;;;14.60;53.20;;;;;;5122423;28;20040;-66
2023/06/04 01:50:05;;;;;;;2.92;1.50;;;14.60;52.90;;;;;;5113224;28;20044;-66
2023/06/04 01:52:31;;;;;;;3.63;1.70;;;14.60;53.00;;;;;;5087815;28;20482;-66
2023/06/04 01:54:58;;;;;;;2.80;1.50;;;14.60;53.00;;;;;;5090331;28;20075;-67
2023/06/04 01:57:24;;;;;;;4.68;2.30;;;14.50;53.20;;;;;;5120980;28;20044;-66
2023/06/04 01:59:50;;;;;;;3.95;1.80;;;14.50;53.20;;;;;;5115702;28;20043;-66
2023/06/04 02:02:16;;;;;;;5.00;1.80;;;14.50;53.40;;;;;;5123583;28;20047;-67
2023/06/04 02:04:42;;;;;;;4.93;2.25;;;14.50;53.50;;;;;;5090064;28;20040;-66
2023/06/04 02:07:13;;;;;;;3.58;1.80;;;14.40;53.50;;;;;;5106008;28;20048;-66
2023/06/04 02:09:40;;;;;;;4.50;1.50;;;14.40;53.60;;;;;;5090524;28;20051;-66
2023/06/04 02:12:06;;;;;;;6.65;2.47;;;14.40;53.70;;;;;;5119369;28;20170;-66
2023/06/04 02:14:31;;;;;;;3.53;1.90;;;14.40;53.90;;;;;;5123313;28;20044;-64
2023/06/04 02:16:57;;;;;;;6.82;2.22;;;14.30;54.10;;;;;;5090306;28;20085;-64
2023/06/04 02:19:27;;;;;;;5.43;2.20;;;14.30;54.20;;;;;;5112911;28;20040;-65
2023/06/04 02:21:53;;;;;;;4.97;2.42;;;14.30;54.50;;;;;;5090109;28;20036;-65
2023/06/04 02:24:20;;;;;;;4.25;1.70;;;14.30;54.60;;;;;;5121354;28;20040;-65
2023/06/04 02:26:46;;;;;;;5.18;2.10;;;14.20;54.60;;;;;;5073357;28;20123;-65
2023/06/04 02:29:12;;;;;;;3.83;1.85;;;14.20;54.80;;;;;;5090104;28;20079;-66
2023/06/04 02:31:37;;;;;;;3.55;2.05;;;14.20;54.80;;;;;;5121781;28;20055;-65
2023/06/04 02:34:03;;;;;;;3.72;1.90;;;14.20;54.90;;;;;;5121949;28;20119;-65
2023/06/04 02:36:30;;;;;;;4.75;2.10;;;14.20;54.90;;;;;;5092392;28;20063;-65
2023/06/04 02:38:56;;;;;;;4.30;2.30;;;14.20;55.10;;;;;;5095199;28;20136;-65
2023/06/04 02:41:22;;;;;;;3.50;1.90;;;14.10;55.20;;;;;;5074257;28;20067;-65
2023/06/04 02:43:48;;;;;;;5.18;1.90;;;14.10;55.20;;;;;;5121832;27;20119;-65
2023/06/04 02:46:14;;;;;;;5.82;1.88;;;14.10;55.40;;;;;;5114682;27;20114;-65
2023/06/04 02:48:40;;;;;;;4.35;1.80;;;14.10;55.50;;;;;;5095592;28;20044;-65
2023/06/04 02:51:05;;;;;;;4.72;1.92;;;14.10;55.60;;;;;;5114599;27;20040;-65
2023/06/04 02:53:31;;;;;;;4.75;1.73;;;14.00;55.70;;;;;;5093281;28;20048;-65
2023/06/04 02:55:57;;;;;;;2.90;1.75;;;14.00;55.70;;;;;;5076498;28;20083;-65
2023/06/04 02:58:25;;;;;;;4.40;1.65;;;14.00;55.70;;;;;;5092707;28;20044;-65
2023/06/04 03:00:52;;;;;;;4.72;1.70;;;14.00;55.70;;;;;;5076572;28;20040;-65
2023/06/04 03:03:18;;;;;;;4.70;2.00;;;14.00;55.90;;;;;;5076428;28;20105;-65
2023/06/04 03:05:44;;;;;;;4.22;1.85;;;13.90;55.90;;;;;;5092960;28;20491;-65
2023/06/04 03:08:09;;;;;;;4.28;1.80;;;13.90;55.90;;;;;;5093211;28;20609;-65
2023/06/04 03:10:35;;;;;;;5.20;1.60;;;13.90;56.00;;;;;;5122834;27;20055;-65
2023/06/04 03:13:01;;;;;;;4.43;2.00;;;13.90;56.00;;;;;;5125656;27;20031;-65
2023/06/04 03:15:26;;;;;;;4.88;1.95;;;13.90;55.90;;;;;;5121762;27;20032;-65
2023/06/04 03:17:52;;;;;;;4.05;1.80;;;13.90;56.10;;;;;;5126243;27;20037;-65
2023/06/04 03:20:18;;;;;;;6.15;2.05;;;13.80;56.10;;;;;;5120808;27;20044;-65
2023/06/04 03:22:43;;;;;;;4.95;2.22;;;13.80;56.20;;;;;;5092664;28;20084;-65
2023/06/04 03:25:09;;;;;;;3.80;1.83;;;13.80;56.30;;;;;;5092946;28;20502;-65
2023/06/04 03:27:35;;;;;;;5.00;2.10;;;13.80;56.30;;;;;;5093220;28;20047;-65
2023/06/04 03:30:04;;;;;;;5.38;1.80;;;13.80;56.40;;;;;;5075939;28;20491;-65
2023/06/04 03:32:30;;;;;;;3.70;1.50;;;13.80;56.40;;;;;;5088788;28;20032;-65
2023/06/04 03:34:55;;;;;;;3.83;1.73;;;13.80;56.30;;;;;;5125777;27;20036;-65
2023/06/04 03:37:21;;;;;;;5.03;2.00;;;13.70;56.40;;;;;;5094331;28;20040;-66
2023/06/04 03:39:47;;;;;;;6.00;1.90;;;13.70;56.50;;;;;;5126045;27;20036;-65
2023/06/04 03:42:12;;;;;;;4.15;2.13;;;13.70;56.60;;;;;;5058918;28;20051;-65
2023/06/04 03:44:38;;;;;;;3.38;1.90;;;13.70;56.60;;;;;;5125869;27;20480;-66
2023/06/04 03:47:04;;;;;;;3.88;1.90;;;13.70;56.70;;;;;;5119758;27;20042;-66
2023/06/04 03:49:30;;;;;;;6.50;2.75;;;13.70;56.80;;;;;;5116520;27;20529;-65
2023/06/04 03:51:56;;;;;;;5.90;2.25;;;13.60;57.00;;;;;;5075116;28;20036;-65
2023/06/04 03:54:22;;;;;;;4.80;2.10;;;13.60;57.00;;;;;;5121923;27;20487;-66
2023/06/04 03:56:48;;;;;;;4.60;2.00;;;13.60;57.00;;;;;;5114279;27;20036;-65
2023/06/04 03:59:14;;;;;;;4.38;2.08;;;13.60;57.10;;;;;;5092133;28;20123;-65
2023/06/04 04:01:39;;;;;;;5.85;2.10;;;13.60;57.20;;;;;;5093390;28;20055;-65
2023/06/04 04:04:05;;;;;;;6.75;2.40;;;13.60;57.40;;;;;;5091738;28;20043;-66
2023/06/04 04:06:31;;;;;;;4.60;1.88;;;13.60;57.60;;;;;;5091267;28;20079;-66
2023/06/04 04:08:58;;;;;;;5.05;2.28;;;13.60;57.80;;;;;;5110455;27;20072;-65
2023/06/04 04:11:23;;;;;;;4.35;2.30;;;13.50;57.70;;;;;;5114461;27;20043;-66
2023/06/04 04:13:49;;;;;;;4.82;2.05;;;13.50;57.90;;;;;;5092015;28;20036;-66
2023/06/04 04:16:15;;;;;;;4.72;2.67;;;13.50;57.90;;;;;;5091458;28;20043;-66
2023/06/04 04:18:46;;;;;;;4.60;2.30;;;13.50;58.50;;;;;;5124560;27;20040;-66
2023/06/04 04:21:12;;;;;;;6.95;2.90;;;13.50;58.50;;;;;;5074517;28;20048;-65
2023/06/04 04:23:42;;;;;;;5.63;2.45;;;13.50;58.60;;;;;;5089977;28;20044;-65
2023/06/04 04:26:09;;;;;;;5.05;2.97;;;13.50;58.80;;;;;;5089326;28;20028;-65
2023/06/04 04:28:35;;;;;;;6.60;2.78;;;13.50;59.00;;;;;;5091786;28;20134;-65
2023/06/04 04:31:02;;;;;;;4.15;2.13;;;13.50;59.20;;;;;;5118706;27;20045;-66
2023/06/04 04:33:32;;;;;;;4.63;2.22;;;13.50;59.30;;;;;;5092722;28;20043;-65
2023/06/04 04:36:02;;;;;;;5.15;2.38;;;13.50;59.30;;;;;;5102181;27;20036;-65
2023/06/04 04:38:28;;;;;;;7.35;3.17;;;13.50;59.40;;;;;;5122868;27;20120;-65
2023/06/04 04:40:55;;;;;;;7.90;3.60;;;13.50;59.60;;;;;;5122412;27;20114;-65
2023/06/04 04:43:32;;;;;;;7.72;3.20;;;13.50;60.50;;;;;;5091409;28;20036;-65
2023/06/04 04:45:57;;;;;;;4.18;2.33;;;13.50;61.00;;;;;;5091136;28;20032;-65
2023/06/04 04:48:24;;;;;;;4.15;2.25;;;13.50;60.60;;;;;;5074769;28;20768;-65
2023/06/04 04:50:50;;;;;;;4.38;2.22;;;13.50;60.80;;;;;;5092430;28;20048;-65
2023/06/04 04:53:15;;;;;;;5.75;2.67;;;13.50;61.00;;;;;;5114859;27;20086;-65
2023/06/04 04:55:41;;;;;;;7.90;2.97;;;13.50;61.40;;;;;;5089213;28;20068;-65
2023/06/04 04:58:07;;;;;;;8.73;3.42;;;13.50;62.30;;;;;;5073431;28;20120;-65
2023/06/04 05:00:33;;;;;;;6.05;2.67;;;13.50;62.30;;;;;;5090248;28;20044;-65
2023/06/04 05:02:58;;;;;;;7.05;3.47;;;13.50;62.40;;;;;;5107941;27;20048;-65
2023/06/04 05:05:24;;;;;;;7.53;3.45;;;13.50;63.10;;;;;;5090989;28;20489;-65
2023/06/04 05:07:50;;;;;;;8.27;4.10;;;13.60;64.10;;;;;;5090669;28;20048;-65
2023/06/04 05:10:17;;;;;;;10.35;4.32;;;13.60;65.20;;;;;;5120993;27;20100;-65
2023/06/04 05:12:53;;;;;;;12.57;4.20;;;13.60;66.40;;;;;;5111371;27;20036;-65
2023/06/04 05:15:19;;;;;;;10.32;3.85;;;13.80;67.50;;;;;;5090706;28;20032;-65
2023/06/04 05:17:46;;;;;;;10.45;4.53;;;13.90;67.70;;;;;;5090506;28;20040;-65
2023/06/04 05:20:13;;;;;;;7.03;3.55;;;14.10;67.90;;;;;;5124116;27;20134;-65
2023/06/04 05:22:39;;;;;;;9.38;4.28;;;14.40;67.70;;;;;;5113769;27;20085;-65
2023/06/04 05:25:08;;;;;;;8.10;3.97;;;14.70;67.60;;;;;;5090504;28;20051;-65
2023/06/04 05:27:35;;;;;;;7.25;3.25;;;15.10;67.10;;;;;;5087505;28;20047;-65
2023/06/04 05:30:03;;;;;;;8.23;3.78;;;15.50;66.10;;;;;;5089210;28;20075;-66
2023/06/04 05:32:31;;;;;;;11.35;3.53;;;15.80;65.20;;;;;;5116195;27;20054;-65
2023/06/04 05:34:58;;;;;;;8.02;3.50;;;16.10;64.20;;;;;;5107328;28;20036;-65
2023/06/04 05:37:28;;;;;;;8.00;2.80;;;16.40;63.20;;;;;;5090418;28;20051;-65
2023/06/04 05:39:56;;;;;;;7.15;3.83;;;16.60;62.30;;;;;;5124178;28;20044;-66
2023/06/04 05:42:22;;;;;;;9.10;3.92;;;16.90;62.00;;;;;;5116625;28;20064;-66
2023/06/04 05:44:48;;;;;;;8.63;3.65;;;17.20;61.70;;;;;;5071647;28;20111;-65
2023/06/04 05:47:16;;;;;;;10.52;3.58;;;17.50;60.90;;;;;;5117527;28;20540;-65
2023/06/04 05:49:42;;;;;;;6.07;3.25;;;17.80;59.90;;;;;;5090166;28;20048;-65
2023/06/04 05:52:08;;;;;;;6.20;2.80;;;18.10;59.20;;;;;;5089326;28;20028;-66
2023/06/04 05:54:33;;;;;;;8.90;3.58;;;18.30;58.30;;;;;;5123494;28;20058;-66
2023/06/04 05:56:59;;;;;;;7.03;3.25;;;18.60;57.90;;;;;;5110711;28;20040;-66
2023/06/04 05:59:25;;;;;;;7.07;3.67;;;18.80;57.10;;;;;;5123665;28;20110;-66
2023/06/04 06:01:51;;;;;;;9.20;3.50;;;19.00;56.90;;;;;;5088755;28;20052;-65
2023/06/04 06:04:16;;;;;;;8.00;3.55;;;19.20;56.60;;;;;;5073338;28;20047;-66
2023/06/04 06:06:43;;;;;;;7.65;3.15;;;19.40;55.80;;;;;;5090584;28;20116;-66
2023/06/04 06:09:10;;;;;;;6.32;2.78;;;19.60;55.20;;;;;;5091735;28;20032;-65
2023/06/04 06:11:36;;;;;;;5.95;2.65;;;19.80;54.10;;;;;;5092573;28;20094;-65
2023/06/04 06:14:01;;;;;;;6.13;2.60;;;20.00;53.60;;;;;;5093923;28;20044;-65
2023/06/04 06:16:28;;;;;;;9.70;3.20;;;20.10;53.00;;;;;;5077147;28;20036;-65
2023/06/04 06:18:56;;;;;;;6.97;3.08;;;20.20;53.10;;;;;;5116605;27;20040;-65
2023/06/04 06:21:22;;;;;;;9.35;3.33;;;20.40;52.40;;;;;;5112130;27;20360;-65
2023/06/04 06:23:47;;;;;;;6.50;3.00;;;20.50;52.60;;;;;;5095298;28;20044;-66
2023/06/04 06:26:13;;;;;;;6.25;2.00;;;20.70;52.60;;;;;;5117488;27;20044;-65
2023/06/04 06:28:39;;;;;;;6.03;2.80;;;20.80;51.40;;;;;;5093883;28;20491;-66
2023/06/04 06:31:06;;;;;;;7.03;2.90;;;21.00;51.30;;;;;;5092930;28;20040;-66
2023/06/04 06:33:31;;;;;;;8.10;2.75;;;21.10;50.50;;;;;;5091252;28;20056;-65
2023/06/04 06:35:59;;;;;;;5.93;2.42;;;21.20;50.30;;;;;;5094399;28;20044;-65
2023/06/04 06:38:26;;;;;;;7.18;2.10;;;21.30;49.80;;;;;;5060681;28;20032;-65
2023/06/04 06:40:52;;;;;;;7.63;2.53;;;21.50;49.40;;;;;;5093842;28;20525;-65
2023/06/04 06:43:18;;;;;;;7.30;2.90;;;21.70;49.60;;;;;;5076838;28;20115;-66
2023/06/04 06:45:43;;;;;;;4.70;2.00;;;21.80;48.60;;;;;;5093050;28;20491;-66
2023/06/04 06:48:09;;;;;;;4.63;2.10;;;21.90;47.70;;;;;;5092300;28;20036;-66
2023/06/04 06:50:37;;;;;;;8.00;3.05;;;22.00;47.10;;;;;;5094984;28;20059;-66
2023/06/04 06:53:03;;;;;;;6.10;2.30;;;22.10;47.10;;;;;;5093131;28;20036;-66
2023/06/04 06:55:29;;;;;;;6.30;2.00;;;22.10;47.00;;;;;;5113740;27;20059;-66
2023/06/04 06:57:55;;;;;;;4.35;1.98;;;22.20;46.90;;;;;;5093254;28;20050;-65
2023/06/04 07:00:21;;;;;;;4.93;1.85;;;22.20;46.10;;;;;;5091688;28;20035;-66
2023/06/04 07:02:47;;;;;;;4.63;1.85;;;22.20;45.90;;;;;;5092849;28;20035;-66
2023/06/04 07:05:15;;;;;;;5.95;2.20;;;22.20;45.60;;;;;;5076761;28;20036;-66
2023/06/04 07:07:40;;;;;;;4.90;2.25;;;22.30;44.60;;;;;;5126490;27;20036;-66
2023/06/04 07:10:06;;;;;;;8.23;1.98;;;22.30;44.70;;;;;;5093008;28;20036;-66
2023/06/04 07:12:32;;;;;;;6.57;1.50;;;22.40;44.70;;;;;;5091018;28;20052;-66
2023/06/04 07:14:57;;;;;;;5.55;1.67;;;22.40;44.80;;;;;;5092913;28;20031;-66
2023/06/04 07:17:23;;;;;;;4.50;1.50;;;22.50;45.00;;;;;;5087988;28;20040;-66
2023/06/04 07:19:49;;;;;;;5.15;1.92;;;22.50;44.60;;;;;;5114898;27;20063;-66
2023/06/04 07:22:17;;;;;;;4.18;1.67;;;22.50;44.20;;;;;;5074998;28;20051;-66
2023/06/04 07:24:43;;;;;;;6.22;2.00;;;22.40;44.40;;;;;;5113685;27;20044;-66
2023/06/04 07:27:13;;;;;;;5.97;1.90;;;22.50;44.80;;;;;;5112662;27;20044;-66
2023/06/04 07:29:38;;;;;;;4.53;1.60;;;22.50;44.70;;;;;;5072245;28;20035;-66
2023/06/04 07:32:05;;;;;;;6.45;1.80;;;22.50;44.40;;;;;;5075669;28;20032;-66
2023/06/04 07:34:30;;;;;;;7.10;2.03;;;22.60;44.50;;;;;;5114413;27;20059;-66
2023/06/04 07:36:56;;;;;;;3.63;2.42;;;22.60;44.30;;;;;;5092523;28;20035;-66
2023/06/04 07:39:22;;;;;;;5.22;1.90;;;22.80;43.90;;;;;;5092467;28;20086;-66
2023/06/04 07:41:47;;;;;;;7.13;1.80;;;22.80;43.50;;;;;;5075876;28;20151;-65
2023/06/04 07:44:13;;;;;;;5.80;1.80;;;22.90;43.40;;;;;;5092638;28;20479;-66
2023/06/04 07:46:39;;;;;;;5.28;2.15;;;22.90;43.50;;;;;;5076517;28;20044;-65
2023/06/04 07:49:04;;;;;;;6.03;1.63;;;22.90;43.50;;;;;;5127712;27;20048;-66
2023/06/04 07:51:30;;;;;;;5.40;1.85;;;22.90;43.10;;;;;;5126039;27;20044;-67
2023/06/04 07:53:56;;;;;;;4.93;1.83;;;23.00;42.80;;;;;;5122061;27;20047;-66
2023/06/04 07:56:22;;;;;;;5.03;1.80;;;23.00;43.00;;;;;;5092154;28;20055;-65
2023/06/04 07:58:47;;;;;;;5.05;1.58;;;23.10;42.90;;;;;;5120064;27;20063;-66
2023/06/04 08:01:13;;;;;;;4.00;1.65;;;23.20;42.80;;;;;;5091504;28;20086;-66
2023/06/04 08:03:41;;;;;;;4.38;1.63;;;23.40;42.40;;;;;;5111463;27;20047;-66
2023/06/04 08:06:07;;;;;;;4.20;1.75;;;23.40;41.80;;;;;;5090849;28;20062;-66
2023/06/04 08:08:35;;;;;;;4.78;1.70;;;23.50;41.80;;;;;;5116143;27;20051;-66
2023/06/04 08:11:01;;;;;;;3.95;1.50;;;23.60;41.30;;;;;;5113401;27;20051;-66
2023/06/04 08:13:27;;;;;;;5.07;1.33;;;23.80;40.90;;;;;;5091819;28;20234;-66
2023/06/04 08:15:52;;;;;;;3.70;1.65;;;23.80;40.20;;;;;;5114320;27;20039;-66
2023/06/04 08:18:18;;;;;;;2.80;1.23;;;23.80;40.20;;;;;;5075949;28;20115;-66
2023/06/04 08:20:44;;;;;;;4.63;1.48;;;23.80;39.60;;;;;;5071727;28;20499;-65
2023/06/04 08:23:10;;;;;;;2.70;1.13;;;23.80;38.80;;;;;;5091208;28;20036;-65
2023/06/04 08:25:36;;;;;;;5.60;1.70;;;23.70;38.50;;;;;;5091634;28;20096;-65
2023/06/04 08:28:02;;;;;;;4.28;1.40;;;23.60;39.10;;;;;;5091265;28;20398;-67
2023/06/04 08:30:29;;;;;;;4.90;1.60;;;23.60;39.20;;;;;;5112910;27;20076;-67
2023/06/04 08:32:55;;;;;;;3.45;1.20;;;23.60;38.70;;;;;;5090613;28;20526;-67
2023/06/04 08:35:20;;;;;;;3.42;1.20;;;23.60;38.20;;;;;;5098602;28;20118;-66
2023/06/04 08:37:46;;;;;;;4.13;1.63;;;23.60;38.00;;;;;;5097816;28;20173;-67
2023/06/04 08:40:12;;;;;;;3.35;1.40;;;23.50;37.60;;;;;;5126530;27;20040;-67
2023/06/04 08:42:44;;;;;;;6.28;1.95;;;23.50;37.70;;;;;;5125874;27;20048;-67
2023/06/04 08:45:12;;;;;;;5.85;1.95;;;23.50;38.50;;;;;;5117246;27;20044;-67
2023/06/04 08:47:47;;;;;;;3.95;1.10;;;23.50;38.80;;;;;;5088704;28;20040;-67
2023/06/04 08:50:17;;;;;;;4.72;1.30;;;23.50;37.60;;;;;;5074119;28;20052;-67
2023/06/04 08:52:43;;;;;;;2.88;1.20;;;23.50;37.50;;;;;;5091211;28;20391;-67
2023/06/04 08:55:09;;;;;;;5.22;1.25;;;23.40;37.30;;;;;;5090589;28;20048;-67
2023/06/04 08:57:35;;;;;;;3.53;1.13;;;23.50;37.70;;;;;;5116232;27;20127;-67
2023/06/04 09:00:04;;;;;;;3.05;1.00;;;23.50;37.60;;;;;;5114021;27;20198;-67
2023/06/04 09:02:30;;;;;;;6.43;1.73;;;23.60;37.20;;;;;;5115071;27;20045;-67
2023/06/04 09:04:56;;;;;;;3.05;1.02;;;23.60;36.90;;;;;;5090396;28;20028;-66
2023/06/04 09:07:24;;;;;;;3.50;1.30;;;23.60;36.60;;;;;;5092813;28;20041;-67
2023/06/04 09:09:50;;;;;;;2.42;1.25;;;23.60;37.00;;;;;;5090285;28;20028;-67
2023/06/04 09:12:24;;;;;;;5.35;1.42;;;23.60;36.60;;;;;;5118430;27;20033;-67
2023/06/04 09:14:52;;;;;;;3.00;1.00;;;23.60;36.30;;;;;;5116081;27;20119;-67
2023/06/04 09:17:22;;;;;;;3.47;1.45;;;23.60;35.70;;;;;;5116345;27;20028;-67
2023/06/04 09:19:48;;;;;;;2.28;1.08;;;23.60;36.10;;;;;;5113860;27;20038;-67
2023/06/04 09:22:14;;;;;;;5.55;1.70;;;23.50;36.40;;;;;;5112503;27;20334;-67
2023/06/04 09:24:41;;;;;;;4.32;1.40;;;23.40;36.30;;;;;;5115946;27;20035;-67
2023/06/04 09:27:15;;;;;;;2.95;1.20;;;23.40;36.50;;;;;;5114475;27;20503;-66
2023/06/04 09:29:56;;;;;;;4.13;1.55;;;23.50;37.20;;;;;;5117211;28;20044;-67
2023/06/04 09:32:26;;;;;;;3.75;1.73;;;23.50;37.10;;;;;;5089436;28;20158;-67
2023/06/04 09:34:53;;;;;;;3.63;1.33;;;23.50;36.20;;;;;;5090146;28;20046;-67
2023/06/04 09:37:21;;;;;;;4.15;1.73;;;23.60;36.50;;;;;;5073964;28;20111;-67
2023/06/04 09:39:56;;;;;;;3.63;1.48;;;23.60;37.40;;;;;;5073549;28;20476;-67
2023/06/04 09:42:23;;;;;;;6.40;2.00;;;23.70;37.10;;;;;;5090663;28;20040;-67
2023/06/04 09:44:49;;;;;;;4.40;1.30;;;23.70;37.50;;;;;;5091771;28;20050;-67
2023/06/04 09:47:15;;;;;;;4.15;1.60;;;23.80;37.70;;;;;;5094143;28;20043;-67
2023/06/04 09:49:45;;;;;;;4.72;1.67;;;23.80;36.50;;;;;;5118319;27;20040;-66
2023/06/04 09:52:12;;;;;;;5.65;1.85;;;23.80;37.20;;;;;;5094180;28;20036;-67
2023/06/04 09:54:39;;;;;;;6.03;1.58;;;23.80;36.90;;;;;;5094188;28;20748;-66
2023/06/04 09:57:17;;;;;;;2.78;1.08;;;23.90;36.50;;;;;;5092681;28;20097;-66
2023/06/04 09:59:48;;;;;;;4.20;1.58;;;24.00;36.90;;;;;;5127657;27;20047;-67
2023/06/04 10:02:20;;;;;;;2.83;0.90;;;24.10;36.60;;;;;;5112450;27;20068;-66
2023/06/04 10:04:52;;;;;;;3.15;1.20;;;24.10;36.20;;;;;;5093687;28;20377;-67
2023/06/04 10:07:17;;;;;;;4.18;1.20;;;24.10;35.50;;;;;;5094335;28;20115;-67
2023/06/04 10:09:47;;;;;;;4.18;1.08;;;24.10;35.10;;;;;;5113179;27;20527;-67
2023/06/04 10:12:16;;;;;;;3.95;1.70;;;24.10;34.80;;;;;;5094042;28;20063;-67
2023/06/04 10:14:49;;;;;;;5.30;1.52;;;24.10;34.80;;;;;;5094433;28;20105;-66
2023/06/04 10:17:16;;;;;;;4.07;1.20;;;24.10;34.30;;;;;;5094699;28;20043;-66
2023/06/04 10:19:44;;;;;;;2.28;1.20;;;24.10;34.90;;;;;;5076777;28;20084;-67
2023/06/04 10:22:14;;;;;;;3.35;1.17;;;24.10;34.80;;;;;;5117856;27;20387;-67
2023/06/04 10:24:39;;;;;;;6.20;1.95;;;24.30;35.00;;;;;;5129416;27;20075;-66
2023/06/04 10:27:10;;;;;;;2.45;1.10;;;24.40;34.90;;;;;;5114216;27;20079;-66
2023/06/04 10:29:36;;;;;;;3.13;1.20;;;24.40;35.50;;;;;;5108578;28;20044;-67
2023/06/04 10:32:03;;;;;;;4.63;0.98;;;24.60;35.30;;;;;;5085547;28;20044;-67
2023/06/04 10:34:29;;;;;;;4.55;1.35;;;24.70;35.50;;;;;;5092194;28;20044;-67
2023/06/04 10:36:55;;;;;;;3.33;1.00;;;24.80;34.50;;;;;;5093413;28;20555;-67
2023/06/04 10:39:29;;;;;;;2.55;1.30;;;25.00;34.20;;;;;;5093069;28;20066;-67
2023/06/04 10:41:59;;;;;;;;;;;25.10;34.50;;;;;;5093525;28;20451;-67
2023/06/04 10:44:25;;;;;;;3.63;1.10;;;25.20;35.40;;;;;;5093161;28;19916;-67
2023/06/04 10:46:50;;;;;;;3.88;1.10;;;25.30;34.60;;;;;;5092985;28;20050;-67
2023/06/04 10:49:26;;;;;;;1.83;0.95;;;25.40;34.50;;;;;;5126220;27;20550;-67
2023/06/04 10:51:52;;;;;;;3.53;1.20;;;25.50;34.30;;;;;;5118398;27;20412;-67
2023/06/04 10:54:25;;;;;;;2.95;1.35;;;25.60;34.00;;;;;;5075096;28;20035;-66
2023/06/04 10:56:52;;;;;;;3.03;1.53;;;25.70;33.50;;;;;;5118425;27;20041;-66
2023/06/04 10:59:18;;;;;;;1.67;1.00;;;25.70;33.40;;;;;;5074820;28;20498;-67
2023/06/04 11:01:44;;;;;;;2.47;1.08;;;25.80;33.70;;;;;;5057399;28;20191;-68
2023/06/04 11:04:26;;;;;;;2.83;1.02;;;25.80;33.80;;;;;;5123229;27;20387;-67
2023/06/04 11:07:10;;;;;;;3.97;1.50;;;25.90;33.70;;;;;;5113051;27;20067;-69
2023/06/04 11:09:50;;;;;;;2.78;1.15;;;25.90;33.50;;;;;;5094117;28;20050;-69
2023/06/04 11:12:16;;;;;;;4.07;1.30;;;25.90;33.30;;;;;;5093513;28;20475;-69
2023/06/04 11:14:57;;;;;;;2.50;1.38;;;25.90;33.30;;;;;;5076762;28;20388;-69
2023/06/04 11:17:23;;;;;;;2.85;1.20;;;26.00;33.30;;;;;;5093997;28;20071;-69
2023/06/04 11:19:49;;;;;;;3.17;1.25;;;26.00;33.20;;;;;;5077490;28;20394;-70
2023/06/04 11:22:14;;;;;;;5.43;1.75;;;26.10;33.00;;;;;;5093481;28;20044;-70
2023/06/04 11:24:40;;;;;;;2.03;1.15;;;26.20;32.60;;;;;;5093843;28;20042;-70
2023/06/04 11:27:06;;;;;;;5.13;1.50;;;26.20;31.90;;;;;;5096662;28;20067;-70
2023/06/04 11:29:32;;;;;;;3.35;1.17;;;25.90;32.70;;;;;;5063182;28;20044;-69
2023/06/04 11:31:58;;;;;;;3.92;1.30;;;25.80;32.80;;;;;;5109921;27;20040;-69
2023/06/04 11:34:26;;;;;;;2.75;1.30;;;25.70;32.90;;;;;;5093145;28;20051;-69
2023/06/04 11:36:55;;;;;;;2.97;0.95;;;25.60;32.60;;;;;;5093682;28;20075;-68
2023/06/04 11:39:21;;;;;;;3.38;1.10;;;25.40;32.80;;;;;;5093672;28;20063;-69
2023/06/04 11:41:50;;;;;;;2.35;1.00;;;25.30;33.50;;;;;;5056695;28;20076;-69
2023/06/04 11:44:18;;;;;;;3.85;1.48;;;25.20;33.90;;;;;;5117686;27;20036;-69
2023/06/04 11:46:45;;;;;;;2.72;1.45;;;25.30;33.70;;;;;;5097135;28;20048;-69
2023/06/04 11:49:18;;;;;;;5.18;1.30;;;25.30;33.50;;;;;;5092965;28;20036;-69
2023/06/04 11:51:51;;;;;;;;;;;25.20;32.60;;;;;;5126031;27;20436;-69
2023/06/04 11:54:21;;;;;;;4.15;1.25;;;25.10;33.50;;;;;;5092807;28;19915;-69
2023/06/04 11:56:51;;;;;;;3.17;1.48;;;25.10;33.70;;;;;;5122942;27;20040;-69
2023/06/04 11:59:18;;;;;;;2.92;1.10;;;25.10;33.60;;;;;;5090030;28;20037;-69
2023/06/04 12:01:45;;;;;;;2.60;1.08;;;25.00;33.30;;;;;;5089517;28;20044;-69
2023/06/04 12:04:18;;;;;;;6.50;2.10;;;25.00;33.70;;;;;;5092623;28;20467;-69
2023/06/04 12:06:54;;;;;;;2.90;1.65;;;25.00;34.60;;;;;;5076477;28;20097;-66
2023/06/04 12:09:32;;;;;;;3.40;1.48;;;25.10;33.40;;;;;;5092695;28;20044;-65
2023/06/04 12:12:03;;;;;;;4.05;1.55;;;25.10;33.30;;;;;;5093979;28;20098;-64
2023/06/04 12:14:30;;;;;;;4.65;1.65;;;25.10;32.80;;;;;;5092734;28;20039;-65
2023/06/04 12:16:59;;;;;;;1.90;1.00;;;25.00;32.70;;;;;;5094130;28;20047;-64
2023/06/04 12:19:26;;;;;;;4.13;1.23;;;25.00;32.40;;;;;;5108667;27;20442;-65
2023/06/04 12:22:02;;;;;;;2.85;1.20;;;25.00;32.70;;;;;;5072840;28;20060;-65
2023/06/04 12:24:28;;;;;;;4.47;1.75;;;25.00;33.10;;;;;;5073886;28;20040;-65
2023/06/04 12:27:21;;;;;;;2.47;1.30;;;25.00;32.30;;;;;;5098718;28;20050;-68
2023/06/04 12:30:00;;;;;;;2.10;1.27;;;24.80;32.70;;;;;;5084800;28;20051;-68
2023/06/04 12:32:26;;;;;;;2.92;1.38;;;24.90;32.90;;;;;;5126672;27;20097;-69
2023/06/04 12:34:52;;;;;;;2.55;1.40;;;24.90;33.70;;;;;;5075556;28;20493;-69
2023/06/04 12:37:18;;;;;;;2.85;1.40;;;24.90;33.90;;;;;;5075891;28;20048;-69
2023/06/04 12:39:44;;;;;;;4.28;1.40;;;24.90;32.90;;;;;;5074453;28;20413;-69
2023/06/04 12:42:09;;;;;;;4.43;1.40;;;24.80;32.90;;;;;;5092989;28;20032;-69
2023/06/04 12:44:36;;;;;;;2.15;1.42;;;24.80;33.10;;;;;;5092294;28;20044;-69
2023/06/04 12:47:02;;;;;;;4.38;1.90;;;24.80;33.50;;;;;;5092743;28;20598;-69
2023/06/04 12:49:28;;;;;;;3.72;1.40;;;24.70;33.60;;;;;;5091954;28;20047;-70